sensor_id;sensor_type;location;lat;lon;timestamp;pressure;altitude;pressure_sealevel;temperature;humidity
77212;BME280;66206;0.000;0.000;2023-06-24T00:02:12;98747.22;;;29.15;27.81
77212;BME280;66206;0.000;0.000;2023-06-24T00:04:39;98746.15;;;29.27;27.81
77212;BME280;66206;0.000;0.000;2023-06-24T00:07:05;98743.01;;;29.17;27.75
77212;BME280;66206;0.000;0.000;2023-06-24T00:09:32;98738.99;;;29.10;27.82
77212;BME280;66206;0.000;0.000;2023-06-24T00:11:58;98737.71;;;29.25;27.82
77212;BME280;66206;0.000;0.000;2023-06-24T00:14:25;98740.38;;;29.09;27.85
77212;BME280;66206;0.000;0.000;2023-06-24T00:16:52;98743.43;;;29.10;27.83
77212;BME280;66206;0.000;0.000;2023-06-24T00:19:20;98740.82;;;29.16;27.81
77212;BME280;66206;0.000;0.000;2023-06-24T00:21:48;98740.84;;;29.24;27.77
77212;BME280;66206;0.000;0.000;2023-06-24T00:24:15;98740.61;;;29.17;27.74
77212;BME280;66206;0.000;0.000;2023-06-24T00:26:42;98739.20;;;29.05;27.84
77212;BME280;66206;0.000;0.000;2023-06-24T00:29:09;98734.12;;;29.19;27.75
77212;BME280;66206;0.000;0.000;2023-06-24T00:31:35;98735.53;;;29.10;27.78
77212;BME280;66206;0.000;0.000;2023-06-24T00:34:02;98734.34;;;29.20;27.82
77212;BME280;66206;0.000;0.000;2023-06-24T00:36:28;98729.41;;;29.27;27.78
77212;BME280;66206;0.000;0.000;2023-06-24T00:38:55;98724.69;;;29.16;27.75
77212;BME280;66206;0.000;0.000;2023-06-24T00:41:22;98724.75;;;29.15;27.88
77212;BME280;66206;0.000;0.000;2023-06-24T00:43:49;98725.73;;;29.15;27.83
77212;BME280;66206;0.000;0.000;2023-06-24T00:46:15;98721.82;;;29.09;27.78
77212;BME280;66206;0.000;0.000;2023-06-24T00:48:42;98715.54;;;29.27;27.73
77212;BME280;66206;0.000;0.000;2023-06-24T00:51:08;98714.22;;;29.27;27.74
77212;BME280;66206;0.000;0.000;2023-06-24T00:53:36;98710.49;;;29.17;27.71
77212;BME280;66206;0.000;0.000;2023-06-24T00:56:02;98708.60;;;29.15;27.74
77212;BME280;66206;0.000;0.000;2023-06-24T00:58:31;98706.43;;;29.09;27.80
77212;BME280;66206;0.000;0.000;2023-06-24T01:00:57;98707.04;;;29.17;27.77
77212;BME280;66206;0.000;0.000;2023-06-24T01:03:25;98707.44;;;29.32;27.77
77212;BME280;66206;0.000;0.000;2023-06-24T01:05:52;98708.06;;;29.18;27.76
77212;BME280;66206;0.000;0.000;2023-06-24T01:08:20;98708.28;;;29.05;27.75
77212;BME280;66206;0.000;0.000;2023-06-24T01:10:47;98708.82;;;29.16;27.77
77212;BME280;66206;0.000;0.000;2023-06-24T01:13:13;98710.26;;;29.12;27.83
77212;BME280;66206;0.000;0.000;2023-06-24T01:15:40;98709.46;;;29.09;27.79
77212;BME280;66206;0.000;0.000;2023-06-24T01:18:07;98707.42;;;29.09;27.84
77212;BME280;66206;0.000;0.000;2023-06-24T01:20:39;98701.58;;;29.24;27.76
77212;BME280;66206;0.000;0.000;2023-06-24T01:23:07;98701.52;;;29.16;27.77
77212;BME280;66206;0.000;0.000;2023-06-24T01:25:33;98699.28;;;29.18;27.80
77212;BME280;66206;0.000;0.000;2023-06-24T01:27:59;98696.86;;;29.21;27.74
77212;BME280;66206;0.000;0.000;2023-06-24T01:30:29;98697.81;;;29.12;27.80
77212;BME280;66206;0.000;0.000;2023-06-24T01:32:54;98695.19;;;29.18;27.76
77212;BME280;66206;0.000;0.000;2023-06-24T01:35:23;98695.59;;;29.19;27.78
77212;BME280;66206;0.000;0.000;2023-06-24T01:37:51;98687.59;;;29.17;27.77
77212;BME280;66206;0.000;0.000;2023-06-24T01:40:20;98686.27;;;28.99;27.77
77212;BME280;66206;0.000;0.000;2023-06-24T01:42:49;98683.15;;;29.13;27.76
77212;BME280;66206;0.000;0.000;2023-06-24T01:45:21;98682.93;;;29.02;27.77
77212;BME280;66206;0.000;0.000;2023-06-24T01:47:44;98682.49;;;29.09;27.81
77212;BME280;66206;0.000;0.000;2023-06-24T01:50:12;98680.06;;;29.16;27.81
77212;BME280;66206;0.000;0.000;2023-06-24T01:52:40;98678.83;;;29.06;27.81
77212;BME280;66206;0.000;0.000;2023-06-24T01:55:08;98677.92;;;29.10;27.74
77212;BME280;66206;0.000;0.000;2023-06-24T01:57:36;98677.69;;;29.22;27.79
77212;BME280;66206;0.000;0.000;2023-06-24T02:00:04;98680.35;;;29.13;27.79
77212;BME280;66206;0.000;0.000;2023-06-24T02:02:30;98678.22;;;29.04;27.78
77212;BME280;66206;0.000;0.000;2023-06-24T02:04:58;98674.42;;;29.11;27.74
77212;BME280;66206;0.000;0.000;2023-06-24T02:07:26;98674.38;;;29.02;27.76
77212;BME280;66206;0.000;0.000;2023-06-24T02:09:54;98671.41;;;29.09;27.87
77212;BME280;66206;0.000;0.000;2023-06-24T02:12:21;98666.60;;;28.95;27.90
77212;BME280;66206;0.000;0.000;2023-06-24T02:14:48;98667.66;;;29.01;27.82
77212;BME280;66206;0.000;0.000;2023-06-24T02:17:15;98668.98;;;29.15;27.79
77212;BME280;66206;0.000;0.000;2023-06-24T02:19:42;98665.57;;;29.16;27.73
77212;BME280;66206;0.000;0.000;2023-06-24T02:22:09;98664.66;;;28.94;27.75
77212;BME280;66206;0.000;0.000;2023-06-24T02:24:37;98664.31;;;28.93;27.86
77212;BME280;66206;0.000;0.000;2023-06-24T02:27:05;98662.69;;;29.10;27.76
77212;BME280;66206;0.000;0.000;2023-06-24T02:29:32;98661.13;;;28.94;27.83
77212;BME280;66206;0.000;0.000;2023-06-24T02:32:00;98658.20;;;28.99;27.82
77212;BME280;66206;0.000;0.000;2023-06-24T02:34:27;98656.26;;;29.08;27.75
77212;BME280;66206;0.000;0.000;2023-06-24T02:36:53;98659.72;;;29.27;27.70
77212;BME280;66206;0.000;0.000;2023-06-24T02:39:20;98669.06;;;29.10;27.81
77212;BME280;66206;0.000;0.000;2023-06-24T02:41:47;98674.46;;;29.07;27.79
77212;BME280;66206;0.000;0.000;2023-06-24T02:44:13;98672.57;;;29.13;27.81
77212;BME280;66206;0.000;0.000;2023-06-24T02:46:40;98669.56;;;28.89;27.86
77212;BME280;66206;0.000;0.000;2023-06-24T02:49:07;98672.86;;;28.95;27.92
77212;BME280;66206;0.000;0.000;2023-06-24T02:51:35;98674.28;;;29.12;27.83
77212;BME280;66206;0.000;0.000;2023-06-24T02:54:03;98676.68;;;28.96;27.84
77212;BME280;66206;0.000;0.000;2023-06-24T02:56:30;98677.05;;;29.09;27.75
77212;BME280;66206;0.000;0.000;2023-06-24T02:58:57;98680.99;;;29.27;27.77
77212;BME280;66206;0.000;0.000;2023-06-24T03:01:23;98680.92;;;29.18;27.78
77212;BME280;66206;0.000;0.000;2023-06-24T03:03:50;98682.84;;;28.86;27.89
77212;BME280;66206;0.000;0.000;2023-06-24T03:06:18;98681.10;;;29.08;27.79
77212;BME280;66206;0.000;0.000;2023-06-24T03:08:44;98680.30;;;28.92;27.87
77212;BME280;66206;0.000;0.000;2023-06-24T03:11:12;98683.56;;;29.05;27.80
77212;BME280;66206;0.000;0.000;2023-06-24T03:13:38;98688.67;;;28.98;27.76
77212;BME280;66206;0.000;0.000;2023-06-24T03:16:05;98691.14;;;29.12;27.70
77212;BME280;66206;0.000;0.000;2023-06-24T03:18:32;98693.70;;;28.97;27.73
77212;BME280;66206;0.000;0.000;2023-06-24T03:20:58;98694.05;;;28.97;27.84
77212;BME280;66206;0.000;0.000;2023-06-24T03:23:25;98695.53;;;28.94;27.80
77212;BME280;66206;0.000;0.000;2023-06-24T03:25:51;98699.73;;;28.79;27.77
77212;BME280;66206;0.000;0.000;2023-06-24T03:28:18;98701.28;;;29.09;27.77
77212;BME280;66206;0.000;0.000;2023-06-24T03:30:44;98705.09;;;29.23;27.69
77212;BME280;66206;0.000;0.000;2023-06-24T03:33:11;98707.46;;;28.82;27.81
77212;BME280;66206;0.000;0.000;2023-06-24T03:35:38;98713.68;;;29.04;27.75
77212;BME280;66206;0.000;0.000;2023-06-24T03:38:04;98719.63;;;29.13;27.75
77212;BME280;66206;0.000;0.000;2023-06-24T03:40:31;98723.71;;;29.05;27.85
77212;BME280;66206;0.000;0.000;2023-06-24T03:42:57;98727.67;;;28.96;27.79
77212;BME280;66206;0.000;0.000;2023-06-24T03:45:24;98732.80;;;29.08;27.73
77212;BME280;66206;0.000;0.000;2023-06-24T03:47:51;98734.47;;;28.91;27.78
77212;BME280;66206;0.000;0.000;2023-06-24T03:50:17;98738.19;;;28.81;27.89
77212;BME280;66206;0.000;0.000;2023-06-24T03:52:44;98737.87;;;29.01;27.77
77212;BME280;66206;0.000;0.000;2023-06-24T03:55:10;98734.92;;;28.97;27.80
77212;BME280;66206;0.000;0.000;2023-06-24T03:57:37;98740.08;;;29.15;27.82
77212;BME280;66206;0.000;0.000;2023-06-24T04:00:04;98745.84;;;29.00;27.73
77212;BME280;66206;0.000;0.000;2023-06-24T04:02:31;98748.91;;;28.99;27.73
77212;BME280;66206;0.000;0.000;2023-06-24T04:04:58;98747.54;;;29.14;27.72
77212;BME280;66206;0.000;0.000;2023-06-24T04:07:24;98750.17;;;29.10;27.79
77212;BME280;66206;0.000;0.000;2023-06-24T04:09:51;98750.27;;;29.04;27.88
77212;BME280;66206;0.000;0.000;2023-06-24T04:12:17;98752.10;;;29.10;27.78
77212;BME280;66206;0.000;0.000;2023-06-24T04:14:44;98751.04;;;28.86;27.79
77212;BME280;66206;0.000;0.000;2023-06-24T04:17:11;98750.87;;;28.99;27.85
77212;BME280;66206;0.000;0.000;2023-06-24T04:19:37;98756.56;;;29.17;27.73
77212;BME280;66206;0.000;0.000;2023-06-24T04:22:04;98763.41;;;29.12;27.84
77212;BME280;66206;0.000;0.000;2023-06-24T04:24:30;98765.67;;;29.07;27.79
77212;BME280;66206;0.000;0.000;2023-06-24T04:26:57;98767.35;;;29.04;27.80
77212;BME280;66206;0.000;0.000;2023-06-24T04:29:24;98766.28;;;29.03;27.83
77212;BME280;66206;0.000;0.000;2023-06-24T04:31:50;98768.57;;;29.08;27.73
77212;BME280;66206;0.000;0.000;2023-06-24T04:34:17;98768.66;;;29.03;27.69
77212;BME280;66206;0.000;0.000;2023-06-24T04:36:43;98768.72;;;28.97;27.72
77212;BME280;66206;0.000;0.000;2023-06-24T04:39:10;98770.20;;;28.95;27.74
77212;BME280;66206;0.000;0.000;2023-06-24T04:41:37;98771.72;;;29.19;27.71
77212;BME280;66206;0.000;0.000;2023-06-24T04:44:03;98773.56;;;28.92;27.71
77212;BME280;66206;0.000;0.000;2023-06-24T04:46:30;98774.24;;;29.00;27.77
77212;BME280;66206;0.000;0.000;2023-06-24T04:48:56;98777.99;;;29.04;27.74
77212;BME280;66206;0.000;0.000;2023-06-24T04:51:23;98778.49;;;29.16;27.72
77212;BME280;66206;0.000;0.000;2023-06-24T04:53:49;98779.84;;;29.03;27.75
77212;BME280;66206;0.000;0.000;2023-06-24T04:56:16;98781.56;;;28.96;27.77
77212;BME280;66206;0.000;0.000;2023-06-24T04:58:42;98781.92;;;29.09;27.79
77212;BME280;66206;0.000;0.000;2023-06-24T05:01:09;98785.21;;;29.16;27.72
77212;BME280;66206;0.000;0.000;2023-06-24T05:03:36;98788.72;;;29.05;27.72
77212;BME280;66206;0.000;0.000;2023-06-24T05:06:02;98795.04;;;29.19;27.63
77212;BME280;66206;0.000;0.000;2023-06-24T05:08:29;98797.74;;;28.89;27.93
77212;BME280;66206;0.000;0.000;2023-06-24T05:10:55;98796.91;;;29.11;27.71
77212;BME280;66206;0.000;0.000;2023-06-24T05:13:22;98796.73;;;28.97;27.74
77212;BME280;66206;0.000;0.000;2023-06-24T05:15:49;98794.90;;;28.99;27.74
77212;BME280;66206;0.000;0.000;2023-06-24T05:18:15;98793.02;;;28.90;27.76
77212;BME280;66206;0.000;0.000;2023-06-24T05:20:42;98790.72;;;29.09;27.71
77212;BME280;66206;0.000;0.000;2023-06-24T05:23:09;98791.67;;;28.98;27.71
77212;BME280;66206;0.000;0.000;2023-06-24T05:25:35;98793.81;;;29.16;27.69
77212;BME280;66206;0.000;0.000;2023-06-24T05:28:02;98794.78;;;29.03;27.71
77212;BME280;66206;0.000;0.000;2023-06-24T05:30:29;98798.29;;;29.02;27.69
77212;BME280;66206;0.000;0.000;2023-06-24T05:32:55;98797.58;;;29.01;27.66
77212;BME280;66206;0.000;0.000;2023-06-24T05:35:22;98795.51;;;29.05;27.63
77212;BME280;66206;0.000;0.000;2023-06-24T05:37:48;98796.15;;;29.21;27.68
77212;BME280;66206;0.000;0.000;2023-06-24T05:40:15;98797.24;;;29.13;27.71
77212;BME280;66206;0.000;0.000;2023-06-24T05:42:41;98798.47;;;29.14;27.68
77212;BME280;66206;0.000;0.000;2023-06-24T05:45:08;98797.36;;;28.93;27.67
77212;BME280;66206;0.000;0.000;2023-06-24T05:47:36;98800.15;;;29.04;27.70
77212;BME280;66206;0.000;0.000;2023-06-24T05:50:03;98803.83;;;29.11;27.62
77212;BME280;66206;0.000;0.000;2023-06-24T05:52:30;98803.30;;;29.00;27.66
77212;BME280;66206;0.000;0.000;2023-06-24T05:54:56;98806.72;;;28.96;27.66
77212;BME280;66206;0.000;0.000;2023-06-24T05:57:23;98805.46;;;29.03;27.59
77212;BME280;66206;0.000;0.000;2023-06-24T05:59:50;98803.18;;;29.01;27.61
77212;BME280;66206;0.000;0.000;2023-06-24T06:02:16;98800.28;;;28.99;27.63
77212;BME280;66206;0.000;0.000;2023-06-24T06:04:43;98799.26;;;29.08;27.63
77212;BME280;66206;0.000;0.000;2023-06-24T06:07:09;98802.64;;;28.99;27.74
77212;BME280;66206;0.000;0.000;2023-06-24T06:09:36;98804.88;;;29.08;27.66
77212;BME280;66206;0.000;0.000;2023-06-24T06:12:03;98805.25;;;28.96;27.69
77212;BME280;66206;0.000;0.000;2023-06-24T06:14:30;98805.42;;;28.94;27.64
77212;BME280;66206;0.000;0.000;2023-06-24T06:16:56;98801.92;;;28.96;27.76
77212;BME280;66206;0.000;0.000;2023-06-24T06:19:23;98798.87;;;28.95;27.71
77212;BME280;66206;0.000;0.000;2023-06-24T06:21:50;98802.51;;;29.22;27.61
77212;BME280;66206;0.000;0.000;2023-06-24T06:24:17;98794.64;;;28.88;27.71
77212;BME280;66206;0.000;0.000;2023-06-24T06:26:44;98795.74;;;28.84;27.67
77212;BME280;66206;0.000;0.000;2023-06-24T06:29:11;98795.53;;;29.16;27.67
77212;BME280;66206;0.000;0.000;2023-06-24T06:31:37;98792.39;;;29.17;27.72
77212;BME280;66206;0.000;0.000;2023-06-24T06:34:04;98794.91;;;29.11;27.66
77212;BME280;66206;0.000;0.000;2023-06-24T06:36:31;98796.13;;;28.91;27.67
77212;BME280;66206;0.000;0.000;2023-06-24T06:38:57;98798.06;;;29.02;27.72
77212;BME280;66206;0.000;0.000;2023-06-24T06:41:24;98799.91;;;29.03;27.66
77212;BME280;66206;0.000;0.000;2023-06-24T06:43:51;98797.63;;;28.85;27.68
77212;BME280;66206;0.000;0.000;2023-06-24T06:46:17;98798.67;;;29.01;27.58
77212;BME280;66206;0.000;0.000;2023-06-24T06:48:44;98798.80;;;29.08;27.61
77212;BME280;66206;0.000;0.000;2023-06-24T06:51:11;98796.74;;;28.93;27.57
77212;BME280;66206;0.000;0.000;2023-06-24T06:53:38;98797.26;;;28.98;27.58
77212;BME280;66206;0.000;0.000;2023-06-24T06:56:05;98799.18;;;28.87;27.60
77212;BME280;66206;0.000;0.000;2023-06-24T06:58:32;98799.63;;;29.01;27.58
77212;BME280;66206;0.000;0.000;2023-06-24T07:00:58;98798.43;;;29.12;27.52
77212;BME280;66206;0.000;0.000;2023-06-24T07:03:25;98798.61;;;29.02;27.52
77212;BME280;66206;0.000;0.000;2023-06-24T07:05:51;98796.63;;;29.08;27.45
77212;BME280;66206;0.000;0.000;2023-06-24T07:08:18;98791.98;;;29.13;27.47
77212;BME280;66206;0.000;0.000;2023-06-24T07:10:44;98787.15;;;29.01;27.41
77212;BME280;66206;0.000;0.000;2023-06-24T07:13:11;98785.92;;;29.25;27.43
77212;BME280;66206;0.000;0.000;2023-06-24T07:15:38;98785.08;;;29.11;27.41
77212;BME280;66206;0.000;0.000;2023-06-24T07:18:04;98781.15;;;28.92;27.56
77212;BME280;66206;0.000;0.000;2023-06-24T07:20:31;98780.90;;;29.18;27.53
77212;BME280;66206;0.000;0.000;2023-06-24T07:22:57;98778.01;;;29.11;27.51
77212;BME280;66206;0.000;0.000;2023-06-24T07:25:24;98775.72;;;29.04;27.66
77212;BME280;66206;0.000;0.000;2023-06-24T07:27:50;98776.54;;;29.11;27.26
77212;BME280;66206;0.000;0.000;2023-06-24T07:30:17;98774.38;;;28.82;27.31
77212;BME280;66206;0.000;0.000;2023-06-24T07:32:44;98771.42;;;28.16;27.88
77212;BME280;66206;0.000;0.000;2023-06-24T07:35:10;98767.29;;;28.44;27.71
77212;BME280;66206;0.000;0.000;2023-06-24T07:37:37;98764.70;;;28.38;27.56
77212;BME280;66206;0.000;0.000;2023-06-24T07:40:04;98764.66;;;28.49;27.28
77212;BME280;66206;0.000;0.000;2023-06-24T07:42:31;98764.22;;;28.46;27.55
77212;BME280;66206;0.000;0.000;2023-06-24T07:44:58;98761.97;;;28.62;27.31
77212;BME280;66206;0.000;0.000;2023-06-24T07:47:24;98761.51;;;28.70;27.32
77212;BME280;66206;0.000;0.000;2023-06-24T07:49:51;98760.27;;;28.80;27.07
77212;BME280;66206;0.000;0.000;2023-06-24T07:52:17;98758.20;;;28.65;27.20
77212;BME280;66206;0.000;0.000;2023-06-24T07:54:44;98762.69;;;28.19;27.60
77212;BME280;66206;0.000;0.000;2023-06-24T07:57:11;98759.74;;;28.56;27.24
77212;BME280;66206;0.000;0.000;2023-06-24T07:59:37;98763.21;;;28.29;27.47
77212;BME280;66206;0.000;0.000;2023-06-24T08:02:04;98765.09;;;28.48;27.34
77212;BME280;66206;0.000;0.000;2023-06-24T08:04:31;98766.25;;;28.58;27.28
77212;BME280;66206;0.000;0.000;2023-06-24T08:06:58;98766.15;;;28.38;27.42
77212;BME280;66206;0.000;0.000;2023-06-24T08:09:24;98766.12;;;28.52;27.41
77212;BME280;66206;0.000;0.000;2023-06-24T08:11:51;98765.40;;;28.33;27.51
77212;BME280;66206;0.000;0.000;2023-06-24T08:14:17;98768.25;;;28.37;27.46
77212;BME280;66206;0.000;0.000;2023-06-24T08:16:44;98770.03;;;28.60;27.19
77212;BME280;66206;0.000;0.000;2023-06-24T08:19:10;98779.20;;;28.28;27.58
77212;BME280;66206;0.000;0.000;2023-06-24T08:21:37;98771.16;;;28.53;27.25
77212;BME280;66206;0.000;0.000;2023-06-24T08:24:04;98771.39;;;28.36;27.41
77212;BME280;66206;0.000;0.000;2023-06-24T08:26:31;98776.45;;;28.41;27.44
77212;BME280;66206;0.000;0.000;2023-06-24T08:28:58;98776.26;;;28.39;27.43
77212;BME280;66206;0.000;0.000;2023-06-24T08:31:24;98773.30;;;28.58;27.14
77212;BME280;66206;0.000;0.000;2023-06-24T08:33:51;98774.72;;;28.62;27.22
77212;BME280;66206;0.000;0.000;2023-06-24T08:36:18;98774.08;;;28.41;27.34
77212;BME280;66206;0.000;0.000;2023-06-24T08:38:45;98771.49;;;28.44;27.34
77212;BME280;66206;0.000;0.000;2023-06-24T08:41:12;98771.55;;;28.44;27.23
77212;BME280;66206;0.000;0.000;2023-06-24T08:43:39;98774.36;;;28.14;27.53
77212;BME280;66206;0.000;0.000;2023-06-24T08:46:05;98771.60;;;28.03;27.43
77212;BME280;66206;0.000;0.000;2023-06-24T08:48:39;98772.10;;;28.24;27.23
77212;BME280;66206;0.000;0.000;2023-06-24T08:50:58;98768.39;;;27.98;27.33
77212;BME280;66206;0.000;0.000;2023-06-24T08:53:27;98768.28;;;27.68;27.49
77212;BME280;66206;0.000;0.000;2023-06-24T08:55:54;98774.36;;;27.64;27.30
77212;BME280;66206;0.000;0.000;2023-06-24T08:58:22;98771.25;;;27.96;26.99
77212;BME280;66206;0.000;0.000;2023-06-24T09:00:49;98768.36;;;27.80;27.12
77212;BME280;66206;0.000;0.000;2023-06-24T09:03:15;98769.37;;;27.54;27.20
77212;BME280;66206;0.000;0.000;2023-06-24T09:05:42;98764.90;;;27.76;26.73
77212;BME280;66206;0.000;0.000;2023-06-24T09:08:08;98770.75;;;27.43;27.18
77212;BME280;66206;0.000;0.000;2023-06-24T09:10:36;98764.93;;;27.67;26.87
77212;BME280;66206;0.000;0.000;2023-06-24T09:13:03;98765.32;;;28.16;26.64
77212;BME280;66206;0.000;0.000;2023-06-24T09:15:30;98764.98;;;27.60;26.45
77212;BME280;66206;0.000;0.000;2023-06-24T09:17:57;98763.96;;;27.63;26.08
77212;BME280;66206;0.000;0.000;2023-06-24T09:20:23;98762.84;;;27.76;25.91
77212;BME280;66206;0.000;0.000;2023-06-24T09:22:50;98763.15;;;27.65;26.11
77212;BME280;66206;0.000;0.000;2023-06-24T09:25:17;98761.65;;;27.85;25.92
77212;BME280;66206;0.000;0.000;2023-06-24T09:27:46;98757.82;;;27.55;26.14
77212;BME280;66206;0.000;0.000;2023-06-24T09:30:17;98754.14;;;27.89;26.01
77212;BME280;66206;0.000;0.000;2023-06-24T09:32:39;98753.45;;;28.05;25.88
77212;BME280;66206;0.000;0.000;2023-06-24T09:35:06;98750.41;;;28.11;25.77
77212;BME280;66206;0.000;0.000;2023-06-24T09:37:32;98749.45;;;27.76;25.56
77212;BME280;66206;0.000;0.000;2023-06-24T09:39:59;98752.74;;;27.91;25.31
77212;BME280;66206;0.000;0.000;2023-06-24T09:42:26;98748.59;;;27.84;25.34
77212;BME280;66206;0.000;0.000;2023-06-24T09:44:53;98740.21;;;28.10;25.20
77212;BME280;66206;0.000;0.000;2023-06-24T09:47:19;98746.55;;;28.08;25.10
77212;BME280;66206;0.000;0.000;2023-06-24T09:49:46;98739.23;;;28.19;24.68
77212;BME280;66206;0.000;0.000;2023-06-24T09:52:13;98745.70;;;27.61;24.94
77212;BME280;66206;0.000;0.000;2023-06-24T09:54:39;98737.37;;;27.80;24.79
77212;BME280;66206;0.000;0.000;2023-06-24T09:57:06;98732.40;;;27.91;24.76
77212;BME280;66206;0.000;0.000;2023-06-24T09:59:33;98731.02;;;27.32;25.15
77212;BME280;66206;0.000;0.000;2023-06-24T10:02:00;98733.13;;;27.69;24.93
77212;BME280;66206;0.000;0.000;2023-06-24T10:04:28;98724.90;;;27.76;24.84
77212;BME280;66206;0.000;0.000;2023-06-24T10:06:55;98717.59;;;28.09;24.60
77212;BME280;66206;0.000;0.000;2023-06-24T10:09:23;98713.84;;;27.73;24.65
77212;BME280;66206;0.000;0.000;2023-06-24T10:11:49;98721.09;;;27.27;25.09
77212;BME280;66206;0.000;0.000;2023-06-24T10:14:16;98713.50;;;27.43;24.84
77212;BME280;66206;0.000;0.000;2023-06-24T10:16:43;98712.19;;;27.58;24.69
77212;BME280;66206;0.000;0.000;2023-06-24T10:19:10;98702.11;;;27.81;24.42
77212;BME280;66206;0.000;0.000;2023-06-24T10:21:49;98711.28;;;27.93;24.37
77212;BME280;66206;0.000;0.000;2023-06-24T10:24:06;98703.97;;;27.85;24.35
77212;BME280;66206;0.000;0.000;2023-06-24T10:26:35;98702.92;;;28.12;24.18
77212;BME280;66206;0.000;0.000;2023-06-24T10:29:10;98695.80;;;28.06;24.09
77212;BME280;66206;0.000;0.000;2023-06-24T10:31:49;98695.41;;;28.00;24.18
77212;BME280;66206;0.000;0.000;2023-06-24T10:34:01;98692.68;;;28.13;24.06
77212;BME280;66206;0.000;0.000;2023-06-24T10:36:35;98692.05;;;27.95;24.16
77212;BME280;66206;0.000;0.000;2023-06-24T10:38:55;98699.52;;;27.47;24.24
77212;BME280;66206;0.000;0.000;2023-06-24T10:41:22;98694.98;;;27.61;24.17
77212;BME280;66206;0.000;0.000;2023-06-24T10:43:48;98691.08;;;27.74;23.95
77212;BME280;66206;0.000;0.000;2023-06-24T10:46:15;98685.45;;;28.01;23.79
77212;BME280;66206;0.000;0.000;2023-06-24T10:48:41;98679.86;;;27.79;23.91
77212;BME280;66206;0.000;0.000;2023-06-24T10:51:08;98678.06;;;28.07;23.70
77212;BME280;66206;0.000;0.000;2023-06-24T10:53:35;98669.21;;;27.99;23.81
77212;BME280;66206;0.000;0.000;2023-06-24T10:56:02;98664.74;;;28.01;23.82
77212;BME280;66206;0.000;0.000;2023-06-24T10:58:28;98666.38;;;28.21;23.60
77212;BME280;66206;0.000;0.000;2023-06-24T11:01:05;98668.45;;;27.98;23.72
77212;BME280;66206;0.000;0.000;2023-06-24T11:03:21;98664.58;;;27.98;23.73
77212;BME280;66206;0.000;0.000;2023-06-24T11:05:48;98656.65;;;28.05;23.74
77212;BME280;66206;0.000;0.000;2023-06-24T11:08:15;98651.96;;;28.17;23.60
77212;BME280;66206;0.000;0.000;2023-06-24T11:10:42;98646.90;;;28.43;23.51
77212;BME280;66206;0.000;0.000;2023-06-24T11:13:08;98649.33;;;28.54;23.49
77212;BME280;66206;0.000;0.000;2023-06-24T11:15:35;98647.25;;;28.51;23.72
77212;BME280;66206;0.000;0.000;2023-06-24T11:18:02;98646.83;;;28.47;23.61
77212;BME280;66206;0.000;0.000;2023-06-24T11:20:29;98645.29;;;28.17;23.70
77212;BME280;66206;0.000;0.000;2023-06-24T11:22:56;98644.09;;;27.83;23.86
77212;BME280;66206;0.000;0.000;2023-06-24T11:25:22;98641.86;;;28.09;23.69
77212;BME280;66206;0.000;0.000;2023-06-24T11:27:49;98640.17;;;28.14;23.82
77212;BME280;66206;0.000;0.000;2023-06-24T11:30:16;98637.58;;;28.27;23.74
77212;BME280;66206;0.000;0.000;2023-06-24T11:32:44;98634.08;;;28.15;23.82
77212;BME280;66206;0.000;0.000;2023-06-24T11:35:11;98629.82;;;28.23;23.70
77212;BME280;66206;0.000;0.000;2023-06-24T11:37:40;98631.64;;;28.18;23.75
77212;BME280;66206;0.000;0.000;2023-06-24T11:40:08;98631.03;;;28.18;23.78
77212;BME280;66206;0.000;0.000;2023-06-24T11:42:35;98630.63;;;27.86;23.94
77212;BME280;66206;0.000;0.000;2023-06-24T11:45:03;98625.42;;;28.03;23.67
77212;BME280;66206;0.000;0.000;2023-06-24T11:47:31;98624.92;;;27.86;23.70
77212;BME280;66206;0.000;0.000;2023-06-24T11:49:58;98621.91;;;27.93;23.74
77212;BME280;66206;0.000;0.000;2023-06-24T11:52:28;98620.07;;;28.19;23.58
77212;BME280;66206;0.000;0.000;2023-06-24T11:54:53;98617.61;;;28.20;23.61
77212;BME280;66206;0.000;0.000;2023-06-24T11:57:19;98616.66;;;28.20;23.67
77212;BME280;66206;0.000;0.000;2023-06-24T11:59:46;98617.01;;;28.12;23.86
77212;BME280;66206;0.000;0.000;2023-06-24T12:02:13;98618.95;;;27.94;23.80
77212;BME280;66206;0.000;0.000;2023-06-24T12:04:43;98609.24;;;28.11;23.79
77212;BME280;66206;0.000;0.000;2023-06-24T12:07:09;98605.57;;;28.34;23.61
77212;BME280;66206;0.000;0.000;2023-06-24T12:09:36;98606.34;;;28.31;23.65
77212;BME280;66206;0.000;0.000;2023-06-24T12:12:03;98604.64;;;28.41;23.58
77212;BME280;66206;0.000;0.000;2023-06-24T12:14:30;98605.48;;;28.29;23.28
77212;BME280;66206;0.000;0.000;2023-06-24T12:16:57;98603.76;;;28.34;23.35
77212;BME280;66206;0.000;0.000;2023-06-24T12:19:23;98604.43;;;28.45;23.33
77212;BME280;66206;0.000;0.000;2023-06-24T12:21:50;98601.39;;;28.25;23.37
77212;BME280;66206;0.000;0.000;2023-06-24T12:24:16;98604.38;;;28.47;23.31
77212;BME280;66206;0.000;0.000;2023-06-24T12:26:43;98599.72;;;28.48;23.26
77212;BME280;66206;0.000;0.000;2023-06-24T12:29:10;98598.08;;;28.32;23.50
77212;BME280;66206;0.000;0.000;2023-06-24T12:31:36;98597.10;;;28.44;23.37
77212;BME280;66206;0.000;0.000;2023-06-24T12:34:03;98595.31;;;28.19;23.44
77212;BME280;66206;0.000;0.000;2023-06-24T12:36:29;98588.63;;;28.15;23.37
77212;BME280;66206;0.000;0.000;2023-06-24T12:38:56;98587.73;;;28.06;23.53
77212;BME280;66206;0.000;0.000;2023-06-24T12:41:23;98587.36;;;28.19;23.41
77212;BME280;66206;0.000;0.000;2023-06-24T12:43:49;98586.70;;;28.19;23.49
77212;BME280;66206;0.000;0.000;2023-06-24T12:46:16;98583.77;;;28.22;23.40
77212;BME280;66206;0.000;0.000;2023-06-24T12:48:42;98580.16;;;28.15;23.34
77212;BME280;66206;0.000;0.000;2023-06-24T12:51:09;98578.66;;;28.29;23.23
77212;BME280;66206;0.000;0.000;2023-06-24T12:53:36;98582.86;;;27.67;23.52
77212;BME280;66206;0.000;0.000;2023-06-24T12:56:02;98581.28;;;28.01;23.13
77212;BME280;66206;0.000;0.000;2023-06-24T12:58:29;98578.90;;;28.09;23.09
77212;BME280;66206;0.000;0.000;2023-06-24T13:00:56;98577.14;;;28.02;23.17
77212;BME280;66206;0.000;0.000;2023-06-24T13:03:22;98578.81;;;28.38;23.01
77212;BME280;66206;0.000;0.000;2023-06-24T13:05:49;98572.92;;;28.19;23.06
77212;BME280;66206;0.000;0.000;2023-06-24T13:08:15;98569.75;;;28.12;23.05